sensor_id;sensor_type;location;lat;lon;timestamp;P1;durP1;ratioP1;P2;durP2;ratioP2
8584;SDS011;7180;52.742;11.420;2022-08-19T00:01:41;16.17;;;14.93;;
8584;SDS011;7180;52.742;11.420;2022-08-19T00:04:08;16.43;;;15.20;;
8584;SDS011;7180;52.742;11.420;2022-08-19T00:06:36;15.73;;;14.53;;
8584;SDS011;7180;52.742;11.420;2022-08-19T00:09:04;17.07;;;15.77;;
8584;SDS011;7180;52.742;11.420;2022-08-19T00:11:31;17.27;;;15.90;;
8584;SDS011;7180;52.742;11.420;2022-08-19T00:13:57;15.90;;;14.70;;
8584;SDS011;7180;52.742;11.420;2022-08-19T00:16:23;17.30;;;16.00;;
8584;SDS011;7180;52.742;11.420;2022-08-19T00:18:49;15.37;;;14.20;;
8584;SDS011;7180;52.742;11.420;2022-08-19T00:21:15;16.87;;;15.50;;
8584;SDS011;7180;52.742;11.420;2022-08-19T00:23:41;17.17;;;15.87;;
8584;SDS011;7180;52.742;11.420;2022-08-19T00:26:07;16.50;;;15.13;;
8584;SDS011;7180;52.742;11.420;2022-08-19T00:28:34;16.77;;;15.27;;
8584;SDS011;7180;52.742;11.420;2022-08-19T00:31:00;18.03;;;16.43;;
8584;SDS011;7180;52.742;11.420;2022-08-19T00:33:28;17.30;;;15.77;;
8584;SDS011;7180;52.742;11.420;2022-08-19T00:35:56;17.27;;;15.87;;
8584;SDS011;7180;52.742;11.420;2022-08-19T00:38:21;17.87;;;16.27;;
8584;SDS011;7180;52.742;11.420;2022-08-19T00:40:47;17.73;;;16.20;;
8584;SDS011;7180;52.742;11.420;2022-08-19T00:43:13;17.93;;;16.43;;
8584;SDS011;7180;52.742;11.420;2022-08-19T00:45:43;16.53;;;15.33;;
8584;SDS011;7180;52.742;11.420;2022-08-19T00:48:09;17.73;;;16.30;;
8584;SDS011;7180;52.742;11.420;2022-08-19T00:50:35;16.87;;;15.27;;
8584;SDS011;7180;52.742;11.420;2022-08-19T00:53:00;16.93;;;15.63;;
8584;SDS011;7180;52.742;11.420;2022-08-19T00:55:29;17.37;;;16.03;;
8584;SDS011;7180;52.742;11.420;2022-08-19T00:58:07;17.00;;;15.53;;
8584;SDS011;7180;52.742;11.420;2022-08-19T01:00:36;16.57;;;15.33;;
8584;SDS011;7180;52.742;11.420;2022-08-19T01:03:12;17.50;;;16.07;;
8584;SDS011;7180;52.742;11.420;2022-08-19T01:05:41;18.00;;;16.47;;
8584;SDS011;7180;52.742;11.420;2022-08-19T01:08:08;18.10;;;16.37;;
8584;SDS011;7180;52.742;11.420;2022-08-19T01:10:41;17.70;;;16.30;;
8584;SDS011;7180;52.742;11.420;2022-08-19T01:13:10;18.40;;;16.80;;
8584;SDS011;7180;52.742;11.420;2022-08-19T01:15:40;17.97;;;16.30;;
8584;SDS011;7180;52.742;11.420;2022-08-19T01:18:11;17.63;;;16.03;;
8584;SDS011;7180;52.742;11.420;2022-08-19T01:20:38;17.33;;;15.87;;
8584;SDS011;7180;52.742;11.420;2022-08-19T01:23:04;17.87;;;16.27;;
8584;SDS011;7180;52.742;11.420;2022-08-19T01:25:35;17.30;;;15.90;;
8584;SDS011;7180;52.742;11.420;2022-08-19T01:28:06;17.40;;;15.90;;
8584;SDS011;7180;52.742;11.420;2022-08-19T01:30:33;17.17;;;15.87;;
8584;SDS011;7180;52.742;11.420;2022-08-19T01:33:00;17.80;;;16.40;;
8584;SDS011;7180;52.742;11.420;2022-08-19T01:35:26;17.57;;;16.07;;
8584;SDS011;7180;52.742;11.420;2022-08-19T01:37:58;17.80;;;16.40;;
8584;SDS011;7180;52.742;11.420;2022-08-19T01:40:28;18.77;;;17.07;;
8584;SDS011;7180;52.742;11.420;2022-08-19T01:42:56;17.67;;;16.17;;
8584;SDS011;7180;52.742;11.420;2022-08-19T01:45:23;17.27;;;15.80;;
8584;SDS011;7180;52.742;11.420;2022-08-19T01:47:50;19.07;;;17.47;;
8584;SDS011;7180;52.742;11.420;2022-08-19T01:50:16;18.37;;;16.87;;
8584;SDS011;7180;52.742;11.420;2022-08-19T01:52:42;18.30;;;16.70;;
8584;SDS011;7180;52.742;11.420;2022-08-19T01:55:10;17.93;;;16.43;;
8584;SDS011;7180;52.742;11.420;2022-08-19T01:57:37;16.80;;;15.50;;
8584;SDS011;7180;52.742;11.420;2022-08-19T02:00:07;17.83;;;16.23;;
8584;SDS011;7180;52.742;11.420;2022-08-19T02:02:35;18.43;;;16.97;;
8584;SDS011;7180;52.742;11.420;2022-08-19T02:05:00;18.07;;;16.57;;
8584;SDS011;7180;52.742;11.420;2022-08-19T02:07:25;17.07;;;15.53;;
8584;SDS011;7180;52.742;11.420;2022-08-19T02:09:53;17.40;;;15.90;;
8584;SDS011;7180;52.742;11.420;2022-08-19T02:12:19;18.00;;;16.40;;
8584;SDS011;7180;52.742;11.420;2022-08-19T02:14:45;17.50;;;16.10;;
8584;SDS011;7180;52.742;11.420;2022-08-19T02:17:10;17.77;;;16.37;;
8584;SDS011;7180;52.742;11.420;2022-08-19T02:19:36;17.30;;;15.83;;
8584;SDS011;7180;52.742;11.420;2022-08-19T02:22:01;16.97;;;15.40;;
8584;SDS011;7180;52.742;11.420;2022-08-19T02:24:26;18.63;;;17.13;;
8584;SDS011;7180;52.742;11.420;2022-08-19T02:26:52;18.27;;;16.77;;
8584;SDS011;7180;52.742;11.420;2022-08-19T02:29:18;18.33;;;16.87;;
8584;SDS011;7180;52.742;11.420;2022-08-19T02:31:43;18.60;;;16.97;;
8584;SDS011;7180;52.742;11.420;2022-08-19T02:34:09;17.03;;;15.63;;
8584;SDS011;7180;52.742;11.420;2022-08-19T02:36:34;18.23;;;16.63;;
8584;SDS011;7180;52.742;11.420;2022-08-19T02:39:00;18.77;;;17.27;;
8584;SDS011;7180;52.742;11.420;2022-08-19T02:41:26;19.97;;;18.27;;
8584;SDS011;7180;52.742;11.420;2022-08-19T02:43:55;18.30;;;16.80;;
8584;SDS011;7180;52.742;11.420;2022-08-19T02:46:23;17.70;;;16.30;;
8584;SDS011;7180;52.742;11.420;2022-08-19T02:48:53;18.23;;;16.83;;
8584;SDS011;7180;52.742;11.420;2022-08-19T02:51:22;18.40;;;16.80;;
8584;SDS011;7180;52.742;11.420;2022-08-19T02:53:51;18.03;;;16.53;;
8584;SDS011;7180;52.742;11.420;2022-08-19T02:56:17;19.33;;;17.57;;
8584;SDS011;7180;52.742;11.420;2022-08-19T02:58:43;17.97;;;16.53;;
8584;SDS011;7180;52.742;11.420;2022-08-19T03:01:08;18.73;;;17.13;;
8584;SDS011;7180;52.742;11.420;2022-08-19T03:03:35;18.43;;;16.90;;
8584;SDS011;7180;52.742;11.420;2022-08-19T03:06:08;18.73;;;17.20;;
8584;SDS011;7180;52.742;11.420;2022-08-19T03:08:38;18.10;;;16.70;;
8584;SDS011;7180;52.742;11.420;2022-08-19T03:11:05;19.40;;;17.70;;
8584;SDS011;7180;52.742;11.420;2022-08-19T03:13:30;17.77;;;16.37;;
8584;SDS011;7180;52.742;11.420;2022-08-19T03:15:56;18.10;;;16.50;;
8584;SDS011;7180;52.742;11.420;2022-08-19T03:18:22;19.27;;;17.63;;
8584;SDS011;7180;52.742;11.420;2022-08-19T03:20:48;18.83;;;17.23;;
8584;SDS011;7180;52.742;11.420;2022-08-19T03:23:15;18.30;;;16.63;;
8584;SDS011;7180;52.742;11.420;2022-08-19T03:25:42;18.83;;;17.33;;
8584;SDS011;7180;52.742;11.420;2022-08-19T03:28:10;19.83;;;18.03;;
8584;SDS011;7180;52.742;11.420;2022-08-19T03:30:37;18.50;;;16.80;;
8584;SDS011;7180;52.742;11.420;2022-08-19T03:33:04;18.63;;;16.93;;
8584;SDS011;7180;52.742;11.420;2022-08-19T03:35:30;17.83;;;16.33;;
8584;SDS011;7180;52.742;11.420;2022-08-19T03:37:55;18.80;;;17.10;;
8584;SDS011;7180;52.742;11.420;2022-08-19T03:40:21;18.80;;;17.10;;
8584;SDS011;7180;52.742;11.420;2022-08-19T03:42:46;18.77;;;16.83;;
8584;SDS011;7180;52.742;11.420;2022-08-19T03:45:12;17.87;;;16.27;;
8584;SDS011;7180;52.742;11.420;2022-08-19T03:47:37;18.17;;;16.67;;
8584;SDS011;7180;52.742;11.420;2022-08-19T03:50:03;18.10;;;16.60;;
8584;SDS011;7180;52.742;11.420;2022-08-19T03:52:29;17.40;;;15.90;;
8584;SDS011;7180;52.742;11.420;2022-08-19T03:54:54;18.53;;;16.93;;
8584;SDS011;7180;52.742;11.420;2022-08-19T03:57:20;19.13;;;17.33;;
8584;SDS011;7180;52.742;11.420;2022-08-19T03:59:45;18.77;;;17.20;;
8584;SDS011;7180;52.742;11.420;2022-08-19T04:02:11;19.57;;;17.77;;
8584;SDS011;7180;52.742;11.420;2022-08-19T04:04:37;19.03;;;17.20;;
8584;SDS011;7180;52.742;11.420;2022-08-19T04:07:04;19.33;;;17.63;;
8584;SDS011;7180;52.742;11.420;2022-08-19T04:09:30;19.33;;;17.67;;
8584;SDS011;7180;52.742;11.420;2022-08-19T04:11:55;18.90;;;17.20;;
8584;SDS011;7180;52.742;11.420;2022-08-19T04:14:26;18.40;;;16.60;;
8584;SDS011;7180;52.742;11.420;2022-08-19T04:16:55;18.83;;;17.17;;
8584;SDS011;7180;52.742;11.420;2022-08-19T04:19:21;19.13;;;17.43;;
8584;SDS011;7180;52.742;11.420;2022-08-19T04:21:49;18.63;;;17.03;;
8584;SDS011;7180;52.742;11.420;2022-08-19T04:24:16;18.53;;;16.90;;
8584;SDS011;7180;52.742;11.420;2022-08-19T04:26:42;17.73;;;16.23;;
8584;SDS011;7180;52.742;11.420;2022-08-19T04:29:09;19.17;;;17.47;;
8584;SDS011;7180;52.742;11.420;2022-08-19T04:31:36;18.50;;;16.80;;
8584;SDS011;7180;52.742;11.420;2022-08-19T04:34:03;18.60;;;16.90;;
8584;SDS011;7180;52.742;11.420;2022-08-19T04:36:31;19.37;;;17.57;;
8584;SDS011;7180;52.742;11.420;2022-08-19T04:39:01;19.00;;;17.33;;
8584;SDS011;7180;52.742;11.420;2022-08-19T04:41:29;18.80;;;17.10;;
8584;SDS011;7180;52.742;11.420;2022-08-19T04:44:13;18.80;;;17.10;;
8584;SDS011;7180;52.742;11.420;2022-08-19T04:46:42;18.33;;;16.67;;
8584;SDS011;7180;52.742;11.420;2022-08-19T04:49:08;18.30;;;16.70;;
8584;SDS011;7180;52.742;11.420;2022-08-19T04:51:33;18.57;;;16.90;;
8584;SDS011;7180;52.742;11.420;2022-08-19T04:54:00;19.23;;;17.50;;
8584;SDS011;7180;52.742;11.420;2022-08-19T04:56:26;18.90;;;17.30;;
8584;SDS011;7180;52.742;11.420;2022-08-19T04:58:53;18.73;;;17.10;;
8584;SDS011;7180;52.742;11.420;2022-08-19T05:01:21;19.10;;;17.30;;
8584;SDS011;7180;52.742;11.420;2022-08-19T05:03:48;18.37;;;16.73;;
8584;SDS011;7180;52.742;11.420;2022-08-19T05:06:15;18.30;;;16.60;;
8584;SDS011;7180;52.742;11.420;2022-08-19T05:08:42;18.23;;;16.53;;
8584;SDS011;7180;52.742;11.420;2022-08-19T05:13:36;17.87;;;16.27;;
8584;SDS011;7180;52.742;11.420;2022-08-19T05:16:02;18.77;;;16.90;;
8584;SDS011;7180;52.742;11.420;2022-08-19T05:18:27;18.30;;;16.50;;
8584;SDS011;7180;52.742;11.420;2022-08-19T05:21:12;18.43;;;16.67;;
8584;SDS011;7180;52.742;11.420;2022-08-19T05:24:00;19.30;;;17.50;;
8584;SDS011;7180;52.742;11.420;2022-08-19T05:26:26;19.27;;;17.37;;
8584;SDS011;7180;52.742;11.420;2022-08-19T05:28:52;20.30;;;18.10;;
8584;SDS011;7180;52.742;11.420;2022-08-19T05:31:17;18.97;;;17.10;;
8584;SDS011;7180;52.742;11.420;2022-08-19T05:33:43;20.13;;;18.13;;
8584;SDS011;7180;52.742;11.420;2022-08-19T05:36:08;18.90;;;16.90;;
8584;SDS011;7180;52.742;11.420;2022-08-19T05:38:34;20.83;;;18.63;;
8584;SDS011;7180;52.742;11.420;2022-08-19T05:41:01;19.80;;;17.90;;
8584;SDS011;7180;52.742;11.420;2022-08-19T05:43:32;19.60;;;17.60;;
8584;SDS011;7180;52.742;11.420;2022-08-19T05:45:58;19.43;;;17.33;;
8584;SDS011;7180;52.742;11.420;2022-08-19T05:48:23;18.97;;;17.23;;
8584;SDS011;7180;52.742;11.420;2022-08-19T05:50:48;19.00;;;17.20;;
8584;SDS011;7180;52.742;11.420;2022-08-19T05:53:15;18.93;;;17.17;;
8584;SDS011;7180;52.742;11.420;2022-08-19T05:55:41;20.27;;;18.27;;
8584;SDS011;7180;52.742;11.420;2022-08-19T05:58:07;20.03;;;18.03;;
8584;SDS011;7180;52.742;11.420;2022-08-19T06:00:32;19.60;;;17.60;;
8584;SDS011;7180;52.742;11.420;2022-08-19T06:02:58;20.60;;;18.60;;
8584;SDS011;7180;52.742;11.420;2022-08-19T06:05:27;19.67;;;17.83;;
8584;SDS011;7180;52.742;11.420;2022-08-19T06:07:54;19.73;;;17.73;;
8584;SDS011;7180;52.742;11.420;2022-08-19T06:10:19;20.73;;;18.63;;
8584;SDS011;7180;52.742;11.420;2022-08-19T06:12:46;19.93;;;17.87;;
8584;SDS011;7180;52.742;11.420;2022-08-19T06:15:12;19.83;;;17.47;;
8584;SDS011;7180;52.742;11.420;2022-08-19T06:17:38;18.07;;;16.37;;
8584;SDS011;7180;52.742;11.420;2022-08-19T06:20:05;19.37;;;17.47;;
8584;SDS011;7180;52.742;11.420;2022-08-19T06:22:36;20.17;;;18.27;;
8584;SDS011;7180;52.742;11.420;2022-08-19T06:25:05;20.40;;;18.40;;
8584;SDS011;7180;52.742;11.420;2022-08-19T06:27:31;19.20;;;17.27;;
8584;SDS011;7180;52.742;11.420;2022-08-19T06:29:58;19.83;;;17.73;;
8584;SDS011;7180;52.742;11.420;2022-08-19T06:32:23;19.03;;;17.23;;
8584;SDS011;7180;52.742;11.420;2022-08-19T06:34:49;18.97;;;17.17;;
8584;SDS011;7180;52.742;11.420;2022-08-19T06:37:14;19.40;;;17.50;;
8584;SDS011;7180;52.742;11.420;2022-08-19T06:39:40;19.23;;;17.43;;
8584;SDS011;7180;52.742;11.420;2022-08-19T06:42:07;19.30;;;17.43;;
8584;SDS011;7180;52.742;11.420;2022-08-19T06:44:36;18.40;;;16.60;;
8584;SDS011;7180;52.742;11.420;2022-08-19T06:47:05;20.03;;;18.03;;
8584;SDS011;7180;52.742;11.420;2022-08-19T06:49:32;19.37;;;17.60;;
8584;SDS011;7180;52.742;11.420;2022-08-19T06:51:58;18.80;;;16.80;;
8584;SDS011;7180;52.742;11.420;2022-08-19T06:54:23;19.93;;;18.03;;
8584;SDS011;7180;52.742;11.420;2022-08-19T06:56:50;20.63;;;18.63;;
8584;SDS011;7180;52.742;11.420;2022-08-19T06:59:17;18.17;;;16.37;;
8584;SDS011;7180;52.742;11.420;2022-08-19T07:01:46;20.77;;;18.77;;
8584;SDS011;7180;52.742;11.420;2022-08-19T07:04:14;19.70;;;17.80;;
8584;SDS011;7180;52.742;11.420;2022-08-19T07:06:41;21.27;;;19.27;;
8584;SDS011;7180;52.742;11.420;2022-08-19T07:09:07;20.27;;;18.47;;
8584;SDS011;7180;52.742;11.420;2022-08-19T07:11:34;21.27;;;19.17;;
8584;SDS011;7180;52.742;11.420;2022-08-19T07:14:00;20.70;;;18.73;;
8584;SDS011;7180;52.742;11.420;2022-08-19T07:16:26;20.80;;;18.70;;
8584;SDS011;7180;52.742;11.420;2022-08-19T07:18:52;19.47;;;17.67;;
8584;SDS011;7180;52.742;11.420;2022-08-19T07:21:19;21.10;;;18.97;;
8584;SDS011;7180;52.742;11.420;2022-08-19T07:23:49;20.27;;;18.37;;
8584;SDS011;7180;52.742;11.420;2022-08-19T07:26:16;19.60;;;17.77;;
8584;SDS011;7180;52.742;11.420;2022-08-19T07:28:44;20.17;;;18.27;;
8584;SDS011;7180;52.742;11.420;2022-08-19T07:31:11;21.73;;;19.50;;
8584;SDS011;7180;52.742;11.420;2022-08-19T07:33:38;21.57;;;19.73;;
8584;SDS011;7180;52.742;11.420;2022-08-19T07:36:05;21.20;;;19.30;;
8584;SDS011;7180;52.742;11.420;2022-08-19T07:38:33;20.60;;;18.70;;
8584;SDS011;7180;52.742;11.420;2022-08-19T07:40:59;22.73;;;20.63;;
8584;SDS011;7180;52.742;11.420;2022-08-19T07:43:25;21.23;;;19.30;;
8584;SDS011;7180;52.742;11.420;2022-08-19T07:45:52;20.60;;;18.63;;
8584;SDS011;7180;52.742;11.420;2022-08-19T07:48:21;20.23;;;18.43;;
8584;SDS011;7180;52.742;11.420;2022-08-19T07:50:48;18.73;;;17.03;;
8584;SDS011;7180;52.742;11.420;2022-08-19T07:53:13;20.27;;;18.37;;
8584;SDS011;7180;52.742;11.420;2022-08-19T07:55:38;19.27;;;17.37;;
8584;SDS011;7180;52.742;11.420;2022-08-19T07:58:04;20.63;;;18.63;;
8584;SDS011;7180;52.742;11.420;2022-08-19T08:00:29;20.73;;;18.83;;
8584;SDS011;7180;52.742;11.420;2022-08-19T08:02:55;21.27;;;19.17;;
8584;SDS011;7180;52.742;11.420;2022-08-19T08:05:20;20.97;;;19.00;;
8584;SDS011;7180;52.742;11.420;2022-08-19T08:08:04;21.27;;;19.17;;
8584;SDS011;7180;52.742;11.420;2022-08-19T08:10:48;19.93;;;18.13;;
8584;SDS011;7180;52.742;11.420;2022-08-19T08:13:13;21.83;;;19.53;;
8584;SDS011;7180;52.742;11.420;2022-08-19T08:15:38;21.50;;;19.50;;
8584;SDS011;7180;52.742;11.420;2022-08-19T08:18:04;21.47;;;19.37;;
8584;SDS011;7180;52.742;11.420;2022-08-19T08:20:29;22.37;;;20.27;;
8584;SDS011;7180;52.742;11.420;2022-08-19T08:22:54;21.80;;;19.50;;
8584;SDS011;7180;52.742;11.420;2022-08-19T08:25:38;21.43;;;19.47;;
8584;SDS011;7180;52.742;11.420;2022-08-19T08:28:04;22.23;;;20.07;;
8584;SDS011;7180;52.742;11.420;2022-08-19T08:30:30;23.20;;;20.70;;
8584;SDS011;7180;52.742;11.420;2022-08-19T08:32:57;21.63;;;19.47;;
8584;SDS011;7180;52.742;11.420;2022-08-19T08:35:23;22.93;;;20.80;;
8584;SDS011;7180;52.742;11.420;2022-08-19T08:37:50;22.57;;;20.43;;
8584;SDS011;7180;52.742;11.420;2022-08-19T08:45:35;23.03;;;20.73;;
8584;SDS011;7180;52.742;11.420;2022-08-19T08:48:11;22.40;;;20.30;;
8584;SDS011;7180;52.742;11.420;2022-08-19T08:50:51;21.27;;;19.23;;
8584;SDS011;7180;52.742;11.420;2022-08-19T08:53:20;26.70;;;24.10;;
8584;SDS011;7180;52.742;11.420;2022-08-19T08:55:47;22.10;;;19.57;;
8584;SDS011;7180;52.742;11.420;2022-08-19T08:58:17;21.93;;;19.83;;
8584;SDS011;7180;52.742;11.420;2022-08-19T09:00:51;22.97;;;20.53;;
8584;SDS011;7180;52.742;11.420;2022-08-19T09:03:18;21.73;;;19.53;;
8584;SDS011;7180;52.742;11.420;2022-08-19T09:05:57;22.03;;;19.23;;
8584;SDS011;7180;52.742;11.420;2022-08-19T09:08:49;22.23;;;20.07;;
8584;SDS011;7180;52.742;11.420;2022-08-19T09:11:34;23.37;;;21.07;;
8584;SDS011;7180;52.742;11.420;2022-08-19T09:14:16;23.03;;;20.67;;
8584;SDS011;7180;52.742;11.420;2022-08-19T09:16:44;21.37;;;19.30;;
8584;SDS011;7180;52.742;11.420;2022-08-19T09:19:09;24.10;;;21.67;;
8584;SDS011;7180;52.742;11.420;2022-08-19T09:21:36;21.23;;;19.23;;
8584;SDS011;7180;52.742;11.420;2022-08-19T09:24:03;22.20;;;20.03;;
8584;SDS011;7180;52.742;11.420;2022-08-19T09:26:29;23.27;;;20.87;;
8584;SDS011;7180;52.742;11.420;2022-08-19T09:28:57;22.17;;;19.87;;
8584;SDS011;7180;52.742;11.420;2022-08-19T09:31:25;23.20;;;20.90;;
8584;SDS011;7180;52.742;11.420;2022-08-19T09:33:52;23.70;;;21.40;;
8584;SDS011;7180;52.742;11.420;2022-08-19T09:36:22;23.37;;;20.97;;
8584;SDS011;7180;52.742;11.420;2022-08-19T09:38:50;21.70;;;19.50;;
8584;SDS011;7180;52.742;11.420;2022-08-19T09:41:17;22.67;;;20.27;;
8584;SDS011;7180;52.742;11.420;2022-08-19T09:43:46;23.27;;;20.77;;
8584;SDS011;7180;52.742;11.420;2022-08-19T09:46:13;26.47;;;22.63;;
8584;SDS011;7180;52.742;11.420;2022-08-19T09:48:39;25.27;;;22.77;;
8584;SDS011;7180;52.742;11.420;2022-08-19T09:51:07;23.23;;;20.80;;
8584;SDS011;7180;52.742;11.420;2022-08-19T09:53:35;24.70;;;22.10;;
8584;SDS011;7180;52.742;11.420;2022-08-19T09:56:02;22.33;;;20.03;;
8584;SDS011;7180;52.742;11.420;2022-08-19T09:58:28;24.60;;;20.77;;
8584;SDS011;7180;52.742;11.420;2022-08-19T10:00:55;22.83;;;20.53;;
8584;SDS011;7180;52.742;11.420;2022-08-19T10:03:25;21.87;;;19.60;;
8584;SDS011;7180;52.742;11.420;2022-08-19T10:05:52;21.37;;;19.23;;
8584;SDS011;7180;52.742;11.420;2022-08-19T10:08:20;21.97;;;19.77;;
8584;SDS011;7180;52.742;11.420;2022-08-19T10:10:51;22.47;;;20.10;;
8584;SDS011;7180;52.742;11.420;2022-08-19T10:13:18;21.50;;;19.30;;
8584;SDS011;7180;52.742;11.420;2022-08-19T10:15:47;21.80;;;19.50;;
8584;SDS011;7180;52.742;11.420;2022-08-19T10:18:15;21.17;;;18.93;;
8584;SDS011;7180;52.742;11.420;2022-08-19T10:20:42;19.73;;;17.73;;
8584;SDS011;7180;52.742;11.420;2022-08-19T10:23:10;21.90;;;19.70;;
8584;SDS011;7180;52.742;11.420;2022-08-19T10:25:35;21.37;;;19.10;;
8584;SDS011;7180;52.742;11.420;2022-08-19T10:28:01;21.50;;;19.23;;
8584;SDS011;7180;52.742;11.420;2022-08-19T10:30:26;19.70;;;17.67;;
8584;SDS011;7180;52.742;11.420;2022-08-19T10:32:52;21.23;;;19.13;;
8584;SDS011;7180;52.742;11.420;2022-08-19T10:35:18;21.07;;;18.87;;
8584;SDS011;7180;52.742;11.420;2022-08-19T10:37:43;20.80;;;18.83;;
8584;SDS011;7180;52.742;11.420;2022-08-19T10:40:08;22.00;;;19.80;;
8584;SDS011;7180;52.742;11.420;2022-08-19T10:42:36;20.83;;;18.83;;
8584;SDS011;7180;52.742;11.420;2022-08-19T10:45:02;22.87;;;18.73;;
8584;SDS011;7180;52.742;11.420;2022-08-19T10:47:30;19.17;;;17.37;;
8584;SDS011;7180;52.742;11.420;2022-08-19T10:49:56;18.80;;;16.80;;
8584;SDS011;7180;52.742;11.420;2022-08-19T10:52:40;20.83;;;18.73;;
8584;SDS011;7180;52.742;11.420;2022-08-19T10:55:07;22.00;;;19.90;;
8584;SDS011;7180;52.742;11.420;2022-08-19T10:57:51;20.47;;;18.50;;
8584;SDS011;7180;52.742;11.420;2022-08-19T11:00:18;21.70;;;19.50;;
8584;SDS011;7180;52.742;11.420;2022-08-19T11:02:44;22.47;;;19.40;;
8584;SDS011;7180;52.742;11.420;2022-08-19T11:05:10;22.43;;;18.30;;
8584;SDS011;7180;52.742;11.420;2022-08-19T11:07:37;21.20;;;19.00;;
8584;SDS011;7180;52.742;11.420;2022-08-19T11:10:03;21.30;;;19.17;;
8584;SDS011;7180;52.742;11.420;2022-08-19T11:12:29;20.17;;;18.27;;
8584;SDS011;7180;52.742;11.420;2022-08-19T11:14:55;18.65;;;16.75;;
8584;SDS011;7180;52.742;11.420;2022-08-19T11:17:20;18.67;;;16.88;;
8584;SDS011;7180;52.742;11.420;2022-08-19T11:19:48;19.17;;;17.27;;
8584;SDS011;7180;52.742;11.420;2022-08-19T11:22:14;19.20;;;17.50;;
8584;SDS011;7180;52.742;11.420;2022-08-19T11:24:39;19.35;;;17.45;;
8584;SDS011;7180;52.742;11.420;2022-08-19T11:27:06;19.83;;;17.73;;
8584;SDS011;7180;52.742;11.420;2022-08-19T11:29:34;18.55;;;16.65;;
8584;SDS011;7180;52.742;11.420;2022-08-19T11:32:03;17.95;;;16.45;;
8584;SDS011;7180;52.742;11.420;2022-08-19T11:34:29;16.63;;;15.13;;
8584;SDS011;7180;52.742;11.420;2022-08-19T11:36:55;17.52;;;15.85;;
8584;SDS011;7180;52.742;11.420;2022-08-19T11:39:24;18.23;;;16.48;;
8584;SDS011;7180;52.742;11.420;2022-08-19T11:41:50;17.00;;;15.50;;
8584;SDS011;7180;52.742;11.420;2022-08-19T11:44:16;17.65;;;15.95;;
8584;SDS011;7180;52.742;11.420;2022-08-19T11:46:42;16.08;;;14.60;;
8584;SDS011;7180;52.742;11.420;2022-08-19T11:49:10;17.42;;;15.77;;
8584;SDS011;7180;52.742;11.420;2022-08-19T11:51:36;17.80;;;15.98;;
8584;SDS011;7180;52.742;11.420;2022-08-19T11:54:03;17.38;;;15.65;;
8584;SDS011;7180;52.742;11.420;2022-08-19T11:56:30;16.35;;;14.80;;
8584;SDS011;7180;52.742;11.420;2022-08-19T11:58:56;19.88;;;18.00;;
8584;SDS011;7180;52.742;11.420;2022-08-19T12:01:22;18.52;;;16.63;;
8584;SDS011;7180;52.742;11.420;2022-08-19T12:03:49;17.55;;;15.75;;
8584;SDS011;7180;52.742;11.420;2022-08-19T12:06:17;18.25;;;16.40;;
8584;SDS011;7180;52.742;11.420;2022-08-19T12:08:45;17.65;;;16.00;;
8584;SDS011;7180;52.742;11.420;2022-08-19T12:11:12;19.13;;;17.15;;
8584;SDS011;7180;52.742;11.420;2022-08-19T12:13:38;18.20;;;16.40;;
8584;SDS011;7180;52.742;11.420;2022-08-19T12:16:08;18.90;;;17.00;;
8584;SDS011;7180;52.742;11.420;2022-08-19T12:18:37;18.92;;;17.02;;
8584;SDS011;7180;52.742;11.420;2022-08-19T12:21:03;18.83;;;16.85;;
8584;SDS011;7180;52.742;11.420;2022-08-19T12:23:28;18.13;;;15.60;;
8584;SDS011;7180;52.742;11.420;2022-08-19T12:25:54;18.42;;;16.05;;
8584;SDS011;7180;52.742;11.420;2022-08-19T12:28:19;18.33;;;16.60;;
8584;SDS011;7180;52.742;11.420;2022-08-19T12:30:46;17.80;;;16.08;;
8584;SDS011;7180;52.742;11.420;2022-08-19T12:33:12;19.05;;;17.05;;
8584;SDS011;7180;52.742;11.420;2022-08-19T12:35:42;18.48;;;16.73;;
8584;SDS011;7180;52.742;11.420;2022-08-19T12:38:10;18.08;;;16.20;;
8584;SDS011;7180;52.742;11.420;2022-08-19T12:40:35;18.23;;;16.35;;
8584;SDS011;7180;52.742;11.420;2022-08-19T12:43:01;18.73;;;16.92;;
8584;SDS011;7180;52.742;11.420;2022-08-19T12:45:26;17.90;;;16.15;;
8584;SDS011;7180;52.742;11.420;2022-08-19T12:47:52;18.48;;;16.73;;
8584;SDS011;7180;52.742;11.420;2022-08-19T12:50:18;17.83;;;16.15;;
8584;SDS011;7180;52.742;11.420;2022-08-19T12:52:46;17.65;;;15.95;;
8584;SDS011;7180;52.742;11.420;2022-08-19T12:55:12;16.95;;;15.25;;
8584;SDS011;7180;52.742;11.420;2022-08-19T12:57:38;17.27;;;15.50;;
8584;SDS011;7180;52.742;11.420;2022-08-19T13:02:32;17.45;;;15.82;;
8584;SDS011;7180;52.742;11.420;2022-08-19T13:04:59;18.08;;;16.27;;
8584;SDS011;7180;52.742;11.420;2022-08-19T13:07:24;17.93;;;16.27;;
8584;SDS011;7180;52.742;11.420;2022-08-19T13:09:51;17.90;;;16.25;;
8584;SDS011;7180;52.742;11.420;2022-08-19T13:12:17;17.50;;;15.93;;
8584;SDS011;7180;52.742;11.420;2022-08-19T13:14:45;18.15;;;16.35;;
8584;SDS011;7180;52.742;11.420;2022-08-19T13:17:16;16.73;;;15.33;;
8584;SDS011;7180;52.742;11.420;2022-08-19T13:19:41;17.27;;;15.77;;
8584;SDS011;7180;52.742;11.420;2022-08-19T13:22:06;16.17;;;14.77;;
8584;SDS011;7180;52.742;11.420;2022-08-19T13:24:32;18.15;;;16.35;;
8584;SDS011;7180;52.742;11.420;2022-08-19T13:26:58;18.07;;;16.37;;
8584;SDS011;7180;52.742;11.420;2022-08-19T13:29:24;15.53;;;14.17;;
8584;SDS011;7180;52.742;11.420;2022-08-19T13:32:08;15.87;;;14.33;;
8584;SDS011;7180;52.742;11.420;2022-08-19T13:34:52;16.50;;;15.00;;
8584;SDS011;7180;52.742;11.420;2022-08-19T13:37:17;16.40;;;15.00;;
8584;SDS011;7180;52.742;11.420;2022-08-19T13:40:02;16.13;;;14.60;;
8584;SDS011;7180;52.742;11.420;2022-08-19T13:42:28;16.03;;;14.53;;
8584;SDS011;7180;52.742;11.420;2022-08-19T13:44:57;16.57;;;14.87;;
8584;SDS011;7180;52.742;11.420;2022-08-19T13:47:23;18.10;;;16.20;;
8584;SDS011;7180;52.742;11.420;2022-08-19T13:49:48;18.87;;;16.87;;
8584;SDS011;7180;52.742;11.420;2022-08-19T13:52:14;19.00;;;17.10;;
8584;SDS011;7180;52.742;11.420;2022-08-19T13:54:40;19.07;;;17.27;;
8584;SDS011;7180;52.742;11.420;2022-08-19T13:57:05;21.97;;;19.53;;
8584;SDS011;7180;52.742;11.420;2022-08-19T13:59:30;19.40;;;17.40;;
8584;SDS011;7180;52.742;11.420;2022-08-19T14:02:00;20.07;;;18.00;;
8584;SDS011;7180;52.742;11.420;2022-08-19T14:04:25;20.57;;;18.40;;
8584;SDS011;7180;52.742;11.420;2022-08-19T14:06:51;18.83;;;16.93;;
8584;SDS011;7180;52.742;11.420;2022-08-19T14:09:16;20.40;;;17.93;;
8584;SDS011;7180;52.742;11.420;2022-08-19T14:11:41;19.20;;;17.00;;
8584;SDS011;7180;52.742;11.420;2022-08-19T14:14:06;20.83;;;18.70;;
8584;SDS011;7180;52.742;11.420;2022-08-19T14:16:32;19.70;;;17.80;;
8584;SDS011;7180;52.742;11.420;2022-08-19T14:18:57;21.13;;;18.93;;
8584;SDS011;7180;52.742;11.420;2022-08-19T14:21:23;20.30;;;18.20;;
8584;SDS011;7180;52.742;11.420;2022-08-19T14:23:50;19.87;;;17.57;;
8584;SDS011;7180;52.742;11.420;2022-08-19T14:26:16;18.47;;;16.47;;
8584;SDS011;7180;52.742;11.420;2022-08-19T14:28:43;19.03;;;16.23;;
8584;SDS011;7180;52.742;11.420;2022-08-19T14:31:12;19.47;;;17.53;;
8584;SDS011;7180;52.742;11.420;2022-08-19T14:33:44;18.87;;;16.87;;
8584;SDS011;7180;52.742;11.420;2022-08-19T14:36:13;19.80;;;17.80;;
8584;SDS011;7180;52.742;11.420;2022-08-19T14:38:39;18.50;;;16.43;;
8584;SDS011;7180;52.742;11.420;2022-08-19T14:41:06;19.63;;;17.73;;
8584;SDS011;7180;52.742;11.420;2022-08-19T14:43:43;18.17;;;16.40;;
8584;SDS011;7180;52.742;11.420;2022-08-19T14:46:14;19.07;;;17.17;;